メインページ
METAR-TAF:

METAR-TAF

空港 :

西安咸陽国際空港

西安, 中華人民共和国

緯度: 34-26N, 経度: 108-45E, 海抜: 479m

現時点の気象観測

当レポートは26分前の14:00(UTC)に作成
北東の風 8kt
気温 31°C
湿度 66%
気圧 1002 hPa
視程10km以上
1,500メートル以下は雲なし、積乱雲なし

METAR: ZLXY 201400Z 04004MPS CAVOK 31/24 Q1002 NOSIG

時間: 22:26 (14:26 UTC)

予報

当レポートは5時間20分前の09:06(UTC)に作成
予報は20日の 12時(UTC)から 21日の 12時(UTC)まで有効
東/北東の風 8kt
視程: 6000m

TAF: ZLXY 200906Z 2012/2112 06004MPS 6000 NSC TX37/2108Z TN26/2021Z

4,000以上の空港の気象観測と天気予報(METAR報とTAF報)

利用可能な観測所は地図上に黄色い丸と赤い丸で示す。

丸の上にカーソルを重ねると観測所名を参照できる。

次にクリックすると気象観測と天気予報を参照できる。

マップの切り替え:黒色「×」印の緑ボタンをクリックして拡大、「-」印の緑ボタンをクリックして縮小、緑色の三角印をクリックして隣りの地図に切り替え


METAR-TAF: